Terminal Aerodrome Forecast
Issued by NWS

Home | Current Version | Previous Version | Text Only | Print | Product List | Glossary On
Versions: 1 2 3 4 5 6 7 8 9 10 11 12 13 14 15 16 17 18
975
FTUS43 KSGF 191730
TAFJLN
TAF
KJLN 191730Z 1918/2018 18012G20KT P6SM FEW060 SCT250
     FM200000 18014KT P6SM FEW250
     FM201300 19015G25KT P6SM SCT050=

USA.gov is the U.S. government's official web portal to all federal, state and local government web resources and services.